This is the latest recevied weather packets stored in our database for station/object KB1LTW-13. If no packets are shown the sender has not sent any weather packets the latest 10 day(s).
| Time | Temp. | Humidity | Pressure | Rain* | Wind** | Luminosity | Snow |
|---|---|---|---|---|---|---|---|
| 1777609282 | 6.67° C | 72% | 1011.2 hPa | 0 mm | - | 0 W/m² | - |
| 1777606281 | 7.22° C | 68% | 1010.9 hPa | 0 mm | - | 0 W/m² | - |
| 1777605682 | 7.22° C | 69% | 1011.2 hPa | 0 mm | - | 0 W/m² | - |
| 1777603296 | 8.33° C | 69% | 1011.2 hPa | 0 mm | - | 0 W/m² | - |
| 1777599700 | 8.89° C | 70% | 1010.8 hPa | 0 mm | - | 0 W/m² | - |
| 1777598526 | 9.44° C | 70% | 1010.9 hPa | 0 mm | - | 0 W/m² | - |
| 1777596700 | 10° C | 72% | 1010.4 hPa | 0 mm | - | 0 W/m² | - |
| 1777591296 | 11.67° C | 73% | 1009.7 hPa | 0 mm | - | 10 W/m² | - |
| 1777588307 | 12.22° C | 73% | 1009 hPa | 0 mm | - | 48 W/m² | - |
| 1777587678 | 12.22° C | 74% | 1009.1 hPa | 0 mm | - | 61 W/m² | - |
| 1777582880 | 12.78° C | 74% | 1008.3 hPa | 0 mm | - | 110 W/m² | - |
| 1777578083 | 12.22° C | 84% | 1008.3 hPa | 0 mm | - | 109 W/m² | - |
| 1777575682 | 12.22° C | 82% | 1008.3 hPa | 0 mm | - | 111 W/m² | - |
| 1777573300 | 11.67° C | 85% | 1008.3 hPa | 0 mm | - | 206 W/m² | - |
| 1777572083 | 11.67° C | 86% | 1008.3 hPa | 0 mm | - | 119 W/m² | - |
| 1777567306 | 10° C | 94% | 1008.8 hPa | 0 mm | - | 250 W/m² | - |
| 1777566676 | 10° C | 95% | 1009.1 hPa | 0 mm | - | 140 W/m² | - |
| 1777563695 | 9.44° C | 97% | 1009.3 hPa | 0 mm | - | 112 W/m² | - |
| 1777561885 | 8.89° C | 97% | 1009.4 hPa | 0 mm | - | 62 W/m² | - |
| 1777560696 | 8.89° C | 97% | 1009.4 hPa | 0 mm | - | 64 W/m² | - |
| 1777554676 | 8.33° C | 98% | 1009.5 hPa | 0 mm | - | 36 W/m² | - |
| 1777554077 | 7.78° C | 98% | 1009.4 hPa | 0 mm | - | 41 W/m² | - |
| 1777551077 | 7.78° C | 98% | 1009.7 hPa | 0 mm | - | 38 W/m² | - |
| 1777549276 | 7.78° C | 98% | 1010 hPa | 0 mm | - | 28 W/m² | - |
| 1777548675 | 7.78° C | 98% | 1010.1 hPa | 0 mm | - | 30 W/m² | - |
* Rain latest hour (hover to see other rain measurements)
** Current wind speed in m/s (hover to see current wind gust speed)